sensor_id;sensor_type;location;lat;lon;timestamp;P1;durP1;ratioP1;P2;durP2;ratioP2
22843;SDS011;11588;51.178;4.852;2024-02-28T00:02:17;11.85;;;7.95;;
22843;SDS011;11588;51.178;4.852;2024-02-28T00:04:44;13.82;;;9.43;;
22843;SDS011;11588;51.178;4.852;2024-02-28T00:07:09;17.10;;;9.93;;
22843;SDS011;11588;51.178;4.852;2024-02-28T00:09:36;13.88;;;9.40;;
22843;SDS011;11588;51.178;4.852;2024-02-28T00:12:02;12.75;;;10.00;;
22843;SDS011;11588;51.178;4.852;2024-02-28T00:14:28;17.80;;;9.73;;
22843;SDS011;11588;51.178;4.852;2024-02-28T00:16:55;18.00;;;10.35;;
22843;SDS011;11588;51.178;4.852;2024-02-28T00:19:21;12.93;;;9.68;;
22843;SDS011;11588;51.178;4.852;2024-02-28T00:21:48;13.75;;;9.85;;
22843;SDS011;11588;51.178;4.852;2024-02-28T00:24:14;15.52;;;10.93;;
22843;SDS011;11588;51.178;4.852;2024-02-28T00:26:41;15.93;;;10.90;;
22843;SDS011;11588;51.178;4.852;2024-02-28T00:29:09;13.88;;;10.20;;
22843;SDS011;11588;51.178;4.852;2024-02-28T00:31:35;15.48;;;10.48;;
22843;SDS011;11588;51.178;4.852;2024-02-28T00:34:02;15.95;;;10.75;;
22843;SDS011;11588;51.178;4.852;2024-02-28T00:36:29;15.50;;;11.30;;
22843;SDS011;11588;51.178;4.852;2024-02-28T00:38:55;16.98;;;11.43;;
22843;SDS011;11588;51.178;4.852;2024-02-28T00:41:21;15.32;;;11.55;;
22843;SDS011;11588;51.178;4.852;2024-02-28T00:43:48;22.35;;;12.07;;
22843;SDS011;11588;51.178;4.852;2024-02-28T00:46:16;16.05;;;11.75;;
22843;SDS011;11588;51.178;4.852;2024-02-28T00:48:41;15.15;;;11.32;;
22843;SDS011;11588;51.178;4.852;2024-02-28T00:51:07;18.27;;;12.18;;
22843;SDS011;11588;51.178;4.852;2024-02-28T00:53:35;14.10;;;11.32;;
22843;SDS011;11588;51.178;4.852;2024-02-28T00:56:02;17.80;;;12.07;;
22843;SDS011;11588;51.178;4.852;2024-02-28T00:58:28;15.55;;;12.00;;
22843;SDS011;11588;51.178;4.852;2024-02-28T01:00:55;18.45;;;12.15;;
22843;SDS011;11588;51.178;4.852;2024-02-28T01:03:22;18.88;;;11.95;;
22843;SDS011;11588;51.178;4.852;2024-02-28T01:05:49;17.05;;;13.10;;
22843;SDS011;11588;51.178;4.852;2024-02-28T01:08:15;18.15;;;13.02;;
22843;SDS011;11588;51.178;4.852;2024-02-28T01:10:43;18.40;;;12.68;;
22843;SDS011;11588;51.178;4.852;2024-02-28T01:13:09;17.00;;;13.18;;
22843;SDS011;11588;51.178;4.852;2024-02-28T01:15:36;22.63;;;13.63;;
22843;SDS011;11588;51.178;4.852;2024-02-28T01:18:02;20.88;;;13.18;;
22843;SDS011;11588;51.178;4.852;2024-02-28T01:20:28;19.25;;;13.65;;
22843;SDS011;11588;51.178;4.852;2024-02-28T01:22:55;18.25;;;13.25;;
22843;SDS011;11588;51.178;4.852;2024-02-28T01:25:21;17.35;;;12.55;;
22843;SDS011;11588;51.178;4.852;2024-02-28T01:27:47;23.35;;;14.38;;
22843;SDS011;11588;51.178;4.852;2024-02-28T01:30:14;21.02;;;12.90;;
22843;SDS011;11588;51.178;4.852;2024-02-28T01:32:40;22.67;;;13.55;;
22843;SDS011;11588;51.178;4.852;2024-02-28T01:35:08;23.30;;;13.23;;
22843;SDS011;11588;51.178;4.852;2024-02-28T01:37:34;23.77;;;13.65;;
22843;SDS011;11588;51.178;4.852;2024-02-28T01:40:01;20.23;;;13.45;;
22843;SDS011;11588;51.178;4.852;2024-02-28T01:42:27;23.40;;;13.57;;
22843;SDS011;11588;51.178;4.852;2024-02-28T01:44:54;18.83;;;13.05;;
22843;SDS011;11588;51.178;4.852;2024-02-28T01:47:20;20.45;;;13.95;;
22843;SDS011;11588;51.178;4.852;2024-02-28T01:49:47;18.63;;;12.93;;
22843;SDS011;11588;51.178;4.852;2024-02-28T01:52:14;21.80;;;13.68;;
22843;SDS011;11588;51.178;4.852;2024-02-28T01:54:41;21.98;;;13.95;;
22843;SDS011;11588;51.178;4.852;2024-02-28T01:57:08;24.98;;;13.63;;
22843;SDS011;11588;51.178;4.852;2024-02-28T01:59:34;25.35;;;13.77;;
22843;SDS011;11588;51.178;4.852;2024-02-28T02:02:01;22.55;;;13.73;;
22843;SDS011;11588;51.178;4.852;2024-02-28T02:04:27;21.10;;;13.57;;
22843;SDS011;11588;51.178;4.852;2024-02-28T02:06:54;23.08;;;13.20;;
22843;SDS011;11588;51.178;4.852;2024-02-28T02:09:24;20.83;;;12.82;;
22843;SDS011;11588;51.178;4.852;2024-02-28T02:11:51;19.05;;;12.60;;
22843;SDS011;11588;51.178;4.852;2024-02-28T02:14:17;21.52;;;12.85;;
22843;SDS011;11588;51.178;4.852;2024-02-28T02:16:44;20.50;;;12.30;;
22843;SDS011;11588;51.178;4.852;2024-02-28T02:19:10;20.48;;;12.63;;
22843;SDS011;11588;51.178;4.852;2024-02-28T02:21:39;20.10;;;13.00;;
22843;SDS011;11588;51.178;4.852;2024-02-28T02:24:08;18.10;;;13.00;;
22843;SDS011;11588;51.178;4.852;2024-02-28T02:26:35;23.08;;;12.80;;
22843;SDS011;11588;51.178;4.852;2024-02-28T02:29:01;23.60;;;13.77;;
22843;SDS011;11588;51.178;4.852;2024-02-28T02:31:28;25.10;;;14.00;;
22843;SDS011;11588;51.178;4.852;2024-02-28T02:33:54;21.95;;;13.60;;
22843;SDS011;11588;51.178;4.852;2024-02-28T02:36:21;24.92;;;13.73;;
22843;SDS011;11588;51.178;4.852;2024-02-28T02:38:47;19.17;;;13.82;;
22843;SDS011;11588;51.178;4.852;2024-02-28T02:41:14;22.85;;;13.82;;
22843;SDS011;11588;51.178;4.852;2024-02-28T02:43:40;23.30;;;13.88;;
22843;SDS011;11588;51.178;4.852;2024-02-28T02:46:06;24.25;;;14.52;;
22843;SDS011;11588;51.178;4.852;2024-02-28T02:48:33;22.02;;;13.48;;
22843;SDS011;11588;51.178;4.852;2024-02-28T02:50:59;23.98;;;14.45;;
22843;SDS011;11588;51.178;4.852;2024-02-28T02:53:25;26.48;;;15.45;;
22843;SDS011;11588;51.178;4.852;2024-02-28T02:55:51;22.95;;;14.68;;
22843;SDS011;11588;51.178;4.852;2024-02-28T02:58:19;25.35;;;15.38;;
22843;SDS011;11588;51.178;4.852;2024-02-28T03:00:45;26.20;;;15.75;;
22843;SDS011;11588;51.178;4.852;2024-02-28T03:03:11;23.45;;;15.55;;
22843;SDS011;11588;51.178;4.852;2024-02-28T03:05:37;27.65;;;16.60;;
22843;SDS011;11588;51.178;4.852;2024-02-28T03:08:04;26.00;;;15.23;;
22843;SDS011;11588;51.178;4.852;2024-02-28T03:10:30;22.95;;;16.23;;
22843;SDS011;11588;51.178;4.852;2024-02-28T03:12:57;27.15;;;16.02;;
22843;SDS011;11588;51.178;4.852;2024-02-28T03:15:23;25.77;;;16.70;;
22843;SDS011;11588;51.178;4.852;2024-02-28T03:17:49;26.23;;;15.88;;
22843;SDS011;11588;51.178;4.852;2024-02-28T03:20:16;27.20;;;16.52;;
22843;SDS011;11588;51.178;4.852;2024-02-28T03:22:42;28.05;;;17.45;;
22843;SDS011;11588;51.178;4.852;2024-02-28T03:25:08;27.40;;;16.02;;
22843;SDS011;11588;51.178;4.852;2024-02-28T03:27:34;27.77;;;17.33;;
22843;SDS011;11588;51.178;4.852;2024-02-28T03:30:00;27.70;;;17.25;;
22843;SDS011;11588;51.178;4.852;2024-02-28T03:32:27;27.35;;;17.10;;
22843;SDS011;11588;51.178;4.852;2024-02-28T03:34:54;27.67;;;17.30;;
22843;SDS011;11588;51.178;4.852;2024-02-28T03:37:20;25.73;;;17.35;;
22843;SDS011;11588;51.178;4.852;2024-02-28T03:39:46;26.85;;;17.13;;
22843;SDS011;11588;51.178;4.852;2024-02-28T03:42:12;29.73;;;18.00;;
22843;SDS011;11588;51.178;4.852;2024-02-28T03:44:39;27.13;;;17.75;;
22843;SDS011;11588;51.178;4.852;2024-02-28T03:47:05;28.98;;;17.27;;
22843;SDS011;11588;51.178;4.852;2024-02-28T03:49:32;27.90;;;17.10;;
22843;SDS011;11588;51.178;4.852;2024-02-28T03:51:58;27.95;;;18.10;;
22843;SDS011;11588;51.178;4.852;2024-02-28T03:54:25;28.15;;;17.67;;
22843;SDS011;11588;51.178;4.852;2024-02-28T03:56:51;27.63;;;17.52;;
22843;SDS011;11588;51.178;4.852;2024-02-28T03:59:19;28.45;;;17.80;;
22843;SDS011;11588;51.178;4.852;2024-02-28T04:01:45;29.88;;;17.30;;
22843;SDS011;11588;51.178;4.852;2024-02-28T04:04:11;27.70;;;17.15;;
22843;SDS011;11588;51.178;4.852;2024-02-28T04:06:37;27.00;;;17.63;;
22843;SDS011;11588;51.178;4.852;2024-02-28T04:09:03;29.58;;;17.80;;
22843;SDS011;11588;51.178;4.852;2024-02-28T04:11:30;28.55;;;18.63;;
22843;SDS011;11588;51.178;4.852;2024-02-28T04:13:56;28.63;;;18.15;;
22843;SDS011;11588;51.178;4.852;2024-02-28T04:16:22;25.77;;;18.10;;
22843;SDS011;11588;51.178;4.852;2024-02-28T04:18:48;28.05;;;18.30;;
22843;SDS011;11588;51.178;4.852;2024-02-28T04:21:15;27.55;;;18.25;;
22843;SDS011;11588;51.178;4.852;2024-02-28T04:23:42;26.33;;;18.67;;
22843;SDS011;11588;51.178;4.852;2024-02-28T04:26:10;27.98;;;17.85;;
22843;SDS011;11588;51.178;4.852;2024-02-28T04:28:36;27.52;;;18.20;;
22843;SDS011;11588;51.178;4.852;2024-02-28T04:31:02;26.55;;;17.85;;
22843;SDS011;11588;51.178;4.852;2024-02-28T04:33:28;28.92;;;18.60;;
22843;SDS011;11588;51.178;4.852;2024-02-28T04:35:57;31.77;;;17.98;;
22843;SDS011;11588;51.178;4.852;2024-02-28T04:38:23;36.15;;;17.58;;
22843;SDS011;11588;51.178;4.852;2024-02-28T04:40:50;28.80;;;18.33;;
22843;SDS011;11588;51.178;4.852;2024-02-28T04:43:16;26.40;;;17.45;;
22843;SDS011;11588;51.178;4.852;2024-02-28T04:45:43;27.48;;;17.98;;
22843;SDS011;11588;51.178;4.852;2024-02-28T04:48:09;28.85;;;17.75;;
22843;SDS011;11588;51.178;4.852;2024-02-28T04:50:35;33.60;;;18.40;;
22843;SDS011;11588;51.178;4.852;2024-02-28T04:53:02;30.73;;;19.55;;
22843;SDS011;11588;51.178;4.852;2024-02-28T04:55:28;29.30;;;19.85;;
22843;SDS011;11588;51.178;4.852;2024-02-28T04:57:57;30.35;;;20.95;;
22843;SDS011;11588;51.178;4.852;2024-02-28T05:00:23;30.05;;;19.35;;
22843;SDS011;11588;51.178;4.852;2024-02-28T05:02:50;28.30;;;20.02;;
22843;SDS011;11588;51.178;4.852;2024-02-28T05:05:16;30.63;;;19.98;;
22843;SDS011;11588;51.178;4.852;2024-02-28T05:07:43;27.23;;;18.42;;
22843;SDS011;11588;51.178;4.852;2024-02-28T05:10:09;29.35;;;18.58;;
22843;SDS011;11588;51.178;4.852;2024-02-28T05:12:36;27.00;;;18.80;;
22843;SDS011;11588;51.178;4.852;2024-02-28T05:15:02;32.53;;;18.67;;
22843;SDS011;11588;51.178;4.852;2024-02-28T05:17:28;30.27;;;18.60;;
22843;SDS011;11588;51.178;4.852;2024-02-28T05:19:55;30.48;;;18.48;;
22843;SDS011;11588;51.178;4.852;2024-02-28T05:22:23;30.40;;;19.90;;
22843;SDS011;11588;51.178;4.852;2024-02-28T05:24:49;30.88;;;18.38;;
22843;SDS011;11588;51.178;4.852;2024-02-28T05:27:15;31.77;;;18.52;;
22843;SDS011;11588;51.178;4.852;2024-02-28T05:29:41;28.27;;;18.70;;
22843;SDS011;11588;51.178;4.852;2024-02-28T05:32:08;28.00;;;18.17;;
22843;SDS011;11588;51.178;4.852;2024-02-28T05:34:34;29.40;;;17.60;;
22843;SDS011;11588;51.178;4.852;2024-02-28T05:37:02;31.45;;;18.60;;
22843;SDS011;11588;51.178;4.852;2024-02-28T05:39:27;30.77;;;18.27;;
22843;SDS011;11588;51.178;4.852;2024-02-28T05:41:55;29.05;;;18.50;;
22843;SDS011;11588;51.178;4.852;2024-02-28T05:44:22;34.60;;;17.95;;
22843;SDS011;11588;51.178;4.852;2024-02-28T05:46:50;30.27;;;19.17;;
22843;SDS011;11588;51.178;4.852;2024-02-28T05:49:16;30.52;;;18.02;;
22843;SDS011;11588;51.178;4.852;2024-02-28T05:51:43;33.28;;;19.83;;
22843;SDS011;11588;51.178;4.852;2024-02-28T05:54:10;27.55;;;18.42;;
22843;SDS011;11588;51.178;4.852;2024-02-28T05:56:36;31.90;;;19.25;;
22843;SDS011;11588;51.178;4.852;2024-02-28T05:59:02;32.10;;;20.08;;
22843;SDS011;11588;51.178;4.852;2024-02-28T06:01:29;29.38;;;18.90;;
22843;SDS011;11588;51.178;4.852;2024-02-28T06:03:56;34.35;;;19.17;;
22843;SDS011;11588;51.178;4.852;2024-02-28T06:06:22;34.97;;;20.17;;
22843;SDS011;11588;51.178;4.852;2024-02-28T06:08:48;31.65;;;19.98;;
22843;SDS011;11588;51.178;4.852;2024-02-28T06:11:15;32.47;;;19.38;;
22843;SDS011;11588;51.178;4.852;2024-02-28T06:13:41;36.20;;;20.35;;
22843;SDS011;11588;51.178;4.852;2024-02-28T06:16:07;34.80;;;19.25;;
22843;SDS011;11588;51.178;4.852;2024-02-28T06:18:34;34.03;;;18.95;;
22843;SDS011;11588;51.178;4.852;2024-02-28T06:21:00;30.23;;;18.20;;
22843;SDS011;11588;51.178;4.852;2024-02-28T06:23:27;37.13;;;19.23;;
22843;SDS011;11588;51.178;4.852;2024-02-28T06:25:54;32.25;;;18.77;;
22843;SDS011;11588;51.178;4.852;2024-02-28T06:28:20;31.13;;;19.27;;
22843;SDS011;11588;51.178;4.852;2024-02-28T06:30:47;28.80;;;18.95;;
22843;SDS011;11588;51.178;4.852;2024-02-28T06:33:13;30.17;;;18.42;;
22843;SDS011;11588;51.178;4.852;2024-02-28T06:35:40;35.25;;;18.25;;
22843;SDS011;11588;51.178;4.852;2024-02-28T06:38:06;30.27;;;18.17;;
22843;SDS011;11588;51.178;4.852;2024-02-28T06:40:33;36.17;;;19.23;;
22843;SDS011;11588;51.178;4.852;2024-02-28T06:43:00;35.97;;;19.45;;
22843;SDS011;11588;51.178;4.852;2024-02-28T06:45:26;35.72;;;19.52;;
22843;SDS011;11588;51.178;4.852;2024-02-28T06:47:53;33.38;;;19.35;;
22843;SDS011;11588;51.178;4.852;2024-02-28T06:50:19;29.63;;;19.23;;
22843;SDS011;11588;51.178;4.852;2024-02-28T06:52:46;34.10;;;18.83;;
22843;SDS011;11588;51.178;4.852;2024-02-28T06:55:12;28.77;;;17.90;;
22843;SDS011;11588;51.178;4.852;2024-02-28T06:57:40;30.00;;;19.27;;
22843;SDS011;11588;51.178;4.852;2024-02-28T07:00:08;30.67;;;19.50;;
22843;SDS011;11588;51.178;4.852;2024-02-28T07:02:35;31.27;;;19.08;;
22843;SDS011;11588;51.178;4.852;2024-02-28T07:05:02;36.92;;;19.42;;
22843;SDS011;11588;51.178;4.852;2024-02-28T07:07:31;36.92;;;19.35;;
22843;SDS011;11588;51.178;4.852;2024-02-28T07:09:57;32.50;;;17.35;;
22843;SDS011;11588;51.178;4.852;2024-02-28T07:12:24;29.85;;;18.83;;
22843;SDS011;11588;51.178;4.852;2024-02-28T07:14:51;32.55;;;18.65;;
22843;SDS011;11588;51.178;4.852;2024-02-28T07:17:17;28.45;;;18.10;;
22843;SDS011;11588;51.178;4.852;2024-02-28T07:19:44;29.38;;;18.00;;
22843;SDS011;11588;51.178;4.852;2024-02-28T07:22:10;36.47;;;18.50;;
22843;SDS011;11588;51.178;4.852;2024-02-28T07:24:37;31.77;;;19.00;;
22843;SDS011;11588;51.178;4.852;2024-02-28T07:27:03;32.80;;;18.63;;
22843;SDS011;11588;51.178;4.852;2024-02-28T07:29:30;28.38;;;19.40;;
22843;SDS011;11588;51.178;4.852;2024-02-28T07:31:56;31.17;;;18.17;;
22843;SDS011;11588;51.178;4.852;2024-02-28T07:34:22;30.85;;;18.90;;
22843;SDS011;11588;51.178;4.852;2024-02-28T07:36:50;28.42;;;18.52;;
22843;SDS011;11588;51.178;4.852;2024-02-28T07:39:16;30.75;;;18.88;;
22843;SDS011;11588;51.178;4.852;2024-02-28T07:41:43;32.42;;;19.10;;
22843;SDS011;11588;51.178;4.852;2024-02-28T07:44:09;37.83;;;19.23;;
22843;SDS011;11588;51.178;4.852;2024-02-28T07:46:37;30.90;;;19.35;;
22843;SDS011;11588;51.178;4.852;2024-02-28T07:49:03;41.80;;;20.23;;
22843;SDS011;11588;51.178;4.852;2024-02-28T07:51:29;34.33;;;20.35;;
22843;SDS011;11588;51.178;4.852;2024-02-28T07:53:55;34.22;;;20.23;;
22843;SDS011;11588;51.178;4.852;2024-02-28T07:56:22;34.92;;;20.27;;
22843;SDS011;11588;51.178;4.852;2024-02-28T07:58:48;30.50;;;20.27;;
22843;SDS011;11588;51.178;4.852;2024-02-28T08:01:15;40.97;;;21.45;;
22843;SDS011;11588;51.178;4.852;2024-02-28T08:03:42;35.92;;;20.63;;
22843;SDS011;11588;51.178;4.852;2024-02-28T08:06:09;36.55;;;19.77;;
22843;SDS011;11588;51.178;4.852;2024-02-28T08:08:36;35.58;;;20.70;;
22843;SDS011;11588;51.178;4.852;2024-02-28T08:11:03;37.17;;;20.13;;
22843;SDS011;11588;51.178;4.852;2024-02-28T08:13:30;36.53;;;21.05;;
22843;SDS011;11588;51.178;4.852;2024-02-28T08:15:56;35.60;;;20.15;;
22843;SDS011;11588;51.178;4.852;2024-02-28T08:18:23;32.72;;;19.73;;
22843;SDS011;11588;51.178;4.852;2024-02-28T08:20:49;37.50;;;21.42;;
22843;SDS011;11588;51.178;4.852;2024-02-28T08:23:16;33.95;;;20.05;;
22843;SDS011;11588;51.178;4.852;2024-02-28T08:25:42;36.70;;;22.38;;
22843;SDS011;11588;51.178;4.852;2024-02-28T08:28:08;37.83;;;21.55;;
22843;SDS011;11588;51.178;4.852;2024-02-28T08:30:35;45.20;;;22.85;;
22843;SDS011;11588;51.178;4.852;2024-02-28T08:33:01;40.30;;;23.25;;
22843;SDS011;11588;51.178;4.852;2024-02-28T08:35:27;38.20;;;21.52;;
22843;SDS011;11588;51.178;4.852;2024-02-28T08:37:54;44.20;;;23.02;;
22843;SDS011;11588;51.178;4.852;2024-02-28T08:40:20;39.63;;;22.92;;
22843;SDS011;11588;51.178;4.852;2024-02-28T08:42:46;42.83;;;22.02;;
22843;SDS011;11588;51.178;4.852;2024-02-28T08:45:14;44.25;;;23.27;;
22843;SDS011;11588;51.178;4.852;2024-02-28T08:47:41;44.95;;;23.38;;
22843;SDS011;11588;51.178;4.852;2024-02-28T08:50:07;46.88;;;23.95;;
22843;SDS011;11588;51.178;4.852;2024-02-28T08:52:34;43.85;;;23.85;;
22843;SDS011;11588;51.178;4.852;2024-02-28T08:55:00;49.00;;;24.00;;
22843;SDS011;11588;51.178;4.852;2024-02-28T08:57:26;48.10;;;23.88;;
22843;SDS011;11588;51.178;4.852;2024-02-28T08:59:53;39.88;;;22.98;;
22843;SDS011;11588;51.178;4.852;2024-02-28T09:02:20;42.63;;;23.20;;
22843;SDS011;11588;51.178;4.852;2024-02-28T09:04:46;41.53;;;22.45;;
22843;SDS011;11588;51.178;4.852;2024-02-28T09:07:18;37.88;;;20.80;;
22843;SDS011;11588;51.178;4.852;2024-02-28T09:09:45;49.00;;;22.75;;
22843;SDS011;11588;51.178;4.852;2024-02-28T09:12:12;42.78;;;22.00;;
22843;SDS011;11588;51.178;4.852;2024-02-28T09:14:39;48.67;;;22.33;;
22843;SDS011;11588;51.178;4.852;2024-02-28T09:17:05;46.08;;;23.40;;
22843;SDS011;11588;51.178;4.852;2024-02-28T09:19:32;50.92;;;22.98;;
22843;SDS011;11588;51.178;4.852;2024-02-28T09:21:59;46.63;;;22.77;;
22843;SDS011;11588;51.178;4.852;2024-02-28T09:24:25;44.63;;;21.95;;
22843;SDS011;11588;51.178;4.852;2024-02-28T09:26:52;48.88;;;22.25;;
22843;SDS011;11588;51.178;4.852;2024-02-28T09:29:18;49.22;;;22.05;;
22843;SDS011;11588;51.178;4.852;2024-02-28T09:31:45;47.97;;;20.90;;
22843;SDS011;11588;51.178;4.852;2024-02-28T09:34:11;49.05;;;22.13;;
22843;SDS011;11588;51.178;4.852;2024-02-28T09:36:41;50.90;;;21.60;;
22843;SDS011;11588;51.178;4.852;2024-02-28T09:39:12;52.63;;;22.58;;
22843;SDS011;11588;51.178;4.852;2024-02-28T09:41:39;50.78;;;22.15;;
22843;SDS011;11588;51.178;4.852;2024-02-28T09:44:06;53.00;;;21.52;;
22843;SDS011;11588;51.178;4.852;2024-02-28T09:46:34;41.25;;;20.67;;
22843;SDS011;11588;51.178;4.852;2024-02-28T09:49:04;53.80;;;20.60;;
22843;SDS011;11588;51.178;4.852;2024-02-28T09:51:33;48.92;;;21.38;;
22843;SDS011;11588;51.178;4.852;2024-02-28T09:54:01;44.28;;;19.92;;
22843;SDS011;11588;51.178;4.852;2024-02-28T09:56:28;43.80;;;19.73;;
22843;SDS011;11588;51.178;4.852;2024-02-28T09:58:55;41.97;;;19.67;;
22843;SDS011;11588;51.178;4.852;2024-02-28T10:01:22;45.55;;;19.58;;
22843;SDS011;11588;51.178;4.852;2024-02-28T10:03:51;41.03;;;19.05;;
22843;SDS011;11588;51.178;4.852;2024-02-28T10:06:19;41.10;;;18.50;;
22843;SDS011;11588;51.178;4.852;2024-02-28T10:08:45;34.63;;;17.10;;
22843;SDS011;11588;51.178;4.852;2024-02-28T10:11:18;34.50;;;16.92;;
22843;SDS011;11588;51.178;4.852;2024-02-28T10:13:47;35.88;;;17.73;;
22843;SDS011;11588;51.178;4.852;2024-02-28T10:16:14;32.63;;;16.85;;
22843;SDS011;11588;51.178;4.852;2024-02-28T10:18:42;31.92;;;16.77;;
22843;SDS011;11588;51.178;4.852;2024-02-28T10:21:08;33.97;;;15.88;;
22843;SDS011;11588;51.178;4.852;2024-02-28T10:23:36;32.47;;;15.43;;
22843;SDS011;11588;51.178;4.852;2024-02-28T10:26:02;32.90;;;16.63;;
22843;SDS011;11588;51.178;4.852;2024-02-28T10:28:29;37.90;;;16.75;;
22843;SDS011;11588;51.178;4.852;2024-02-28T10:30:55;34.28;;;17.08;;
22843;SDS011;11588;51.178;4.852;2024-02-28T10:33:22;29.88;;;16.13;;
22843;SDS011;11588;51.178;4.852;2024-02-28T10:35:55;32.15;;;16.75;;
22843;SDS011;11588;51.178;4.852;2024-02-28T10:38:22;29.25;;;16.10;;
22843;SDS011;11588;51.178;4.852;2024-02-28T10:40:49;25.90;;;15.25;;
22843;SDS011;11588;51.178;4.852;2024-02-28T10:43:16;27.65;;;15.13;;
22843;SDS011;11588;51.178;4.852;2024-02-28T10:45:44;28.85;;;15.18;;
22843;SDS011;11588;51.178;4.852;2024-02-28T10:48:10;27.30;;;14.32;;
22843;SDS011;11588;51.178;4.852;2024-02-28T10:50:37;24.13;;;14.85;;
22843;SDS011;11588;51.178;4.852;2024-02-28T10:53:04;28.50;;;14.68;;
22843;SDS011;11588;51.178;4.852;2024-02-28T10:55:33;24.38;;;14.57;;
22843;SDS011;11588;51.178;4.852;2024-02-28T10:58:02;24.77;;;13.82;;
22843;SDS011;11588;51.178;4.852;2024-02-28T11:00:30;25.45;;;14.50;;
22843;SDS011;11588;51.178;4.852;2024-02-28T11:02:57;21.88;;;13.52;;
22843;SDS011;11588;51.178;4.852;2024-02-28T11:05:35;26.35;;;13.52;;
22843;SDS011;11588;51.178;4.852;2024-02-28T11:08:03;25.60;;;13.25;;
22843;SDS011;11588;51.178;4.852;2024-02-28T11:10:31;23.60;;;12.23;;
22843;SDS011;11588;51.178;4.852;2024-02-28T11:12:59;22.15;;;12.23;;
22843;SDS011;11588;51.178;4.852;2024-02-28T11:15:25;17.15;;;11.20;;
22843;SDS011;11588;51.178;4.852;2024-02-28T11:17:53;17.10;;;10.90;;
22843;SDS011;11588;51.178;4.852;2024-02-28T11:20:19;24.05;;;10.80;;
22843;SDS011;11588;51.178;4.852;2024-02-28T11:22:46;16.05;;;10.27;;
22843;SDS011;11588;51.178;4.852;2024-02-28T11:25:12;18.00;;;11.35;;
22843;SDS011;11588;51.178;4.852;2024-02-28T11:30:14;16.40;;;10.05;;
22843;SDS011;11588;51.178;4.852;2024-02-28T11:32:41;23.48;;;15.23;;
22843;SDS011;11588;51.178;4.852;2024-02-28T11:35:08;26.30;;;17.77;;
22843;SDS011;11588;51.178;4.852;2024-02-28T11:37:34;14.48;;;9.82;;
22843;SDS011;11588;51.178;4.852;2024-02-28T11:40:01;17.88;;;10.48;;
22843;SDS011;11588;51.178;4.852;2024-02-28T11:42:27;17.30;;;10.13;;
22843;SDS011;11588;51.178;4.852;2024-02-28T11:44:55;18.27;;;10.85;;
22843;SDS011;11588;51.178;4.852;2024-02-28T11:47:23;18.48;;;10.80;;
22843;SDS011;11588;51.178;4.852;2024-02-28T11:49:50;20.38;;;10.57;;
22843;SDS011;11588;51.178;4.852;2024-02-28T11:52:16;14.35;;;9.82;;
22843;SDS011;11588;51.178;4.852;2024-02-28T11:54:42;17.27;;;10.05;;
22843;SDS011;11588;51.178;4.852;2024-02-28T11:57:10;16.33;;;12.63;;
22843;SDS011;11588;51.178;4.852;2024-02-28T11:59:39;22.23;;;15.40;;
22843;SDS011;11588;51.178;4.852;2024-02-28T12:04:40;14.85;;;10.68;;
22843;SDS011;11588;51.178;4.852;2024-02-28T12:07:06;15.75;;;10.07;;
22843;SDS011;11588;51.178;4.852;2024-02-28T12:09:34;15.75;;;10.23;;
22843;SDS011;11588;51.178;4.852;2024-02-28T12:12:01;14.07;;;10.05;;
22843;SDS011;11588;51.178;4.852;2024-02-28T12:14:28;14.70;;;9.88;;
22843;SDS011;11588;51.178;4.852;2024-02-28T12:16:54;15.48;;;10.20;;
22843;SDS011;11588;51.178;4.852;2024-02-28T12:19:23;17.23;;;10.10;;
22843;SDS011;11588;51.178;4.852;2024-02-28T12:21:50;17.65;;;10.77;;
22843;SDS011;11588;51.178;4.852;2024-02-28T12:24:19;16.00;;;10.55;;
22843;SDS011;11588;51.178;4.852;2024-02-28T12:26:46;15.82;;;10.45;;
22843;SDS011;11588;51.178;4.852;2024-02-28T12:29:12;13.85;;;9.43;;
22843;SDS011;11588;51.178;4.852;2024-02-28T12:31:39;11.60;;;9.43;;
22843;SDS011;11588;51.178;4.852;2024-02-28T12:34:05;14.23;;;9.75;;
22843;SDS011;11588;51.178;4.852;2024-02-28T12:36:32;13.77;;;9.40;;
22843;SDS011;11588;51.178;4.852;2024-02-28T12:38:58;18.58;;;10.30;;
22843;SDS011;11588;51.178;4.852;2024-02-28T12:41:25;13.38;;;10.05;;
22843;SDS011;11588;51.178;4.852;2024-02-28T12:43:52;13.05;;;10.00;;
22843;SDS011;11588;51.178;4.852;2024-02-28T12:46:19;17.52;;;9.60;;
22843;SDS011;11588;51.178;4.852;2024-02-28T12:48:45;13.57;;;9.50;;
22843;SDS011;11588;51.178;4.852;2024-02-28T12:53:58;15.95;;;10.02;;
22843;SDS011;11588;51.178;4.852;2024-02-28T12:56:25;13.90;;;10.13;;
22843;SDS011;11588;51.178;4.852;2024-02-28T12:58:51;16.27;;;10.45;;
22843;SDS011;11588;51.178;4.852;2024-02-28T13:01:18;15.60;;;10.43;;
22843;SDS011;11588;51.178;4.852;2024-02-28T13:03:44;11.10;;;9.30;;
22843;SDS011;11588;51.178;4.852;2024-02-28T13:06:10;13.35;;;10.25;;
22843;SDS011;11588;51.178;4.852;2024-02-28T13:08:37;15.90;;;10.38;;
22843;SDS011;11588;51.178;4.852;2024-02-28T13:11:04;11.95;;;9.80;;
22843;SDS011;11588;51.178;4.852;2024-02-28T13:13:30;15.43;;;9.73;;
22843;SDS011;11588;51.178;4.852;2024-02-28T13:15:57;16.25;;;9.85;;
22843;SDS011;11588;51.178;4.852;2024-02-28T13:18:24;16.17;;;9.70;;
22843;SDS011;11588;51.178;4.852;2024-02-28T13:20:51;16.38;;;9.60;;
22843;SDS011;11588;51.178;4.852;2024-02-28T13:23:18;15.23;;;9.75;;
22843;SDS011;11588;51.178;4.852;2024-02-28T13:25:45;13.85;;;8.85;;
22843;SDS011;11588;51.178;4.852;2024-02-28T13:28:11;23.00;;;9.20;;
22843;SDS011;11588;51.178;4.852;2024-02-28T13:30:37;14.43;;;9.02;;
22843;SDS011;11588;51.178;4.852;2024-02-28T13:33:04;13.80;;;7.82;;
22843;SDS011;11588;51.178;4.852;2024-02-28T13:35:30;11.52;;;7.18;;
22843;SDS011;11588;51.178;4.852;2024-02-28T13:37:57;15.05;;;7.65;;
22843;SDS011;11588;51.178;4.852;2024-02-28T13:40:26;9.93;;;7.32;;
22843;SDS011;11588;51.178;4.852;2024-02-28T13:42:53;9.18;;;7.22;;
22843;SDS011;11588;51.178;4.852;2024-02-28T13:45:19;10.68;;;6.72;;
22843;SDS011;11588;51.178;4.852;2024-02-28T13:47:45;10.27;;;6.93;;
22843;SDS011;11588;51.178;4.852;2024-02-28T13:50:12;10.43;;;6.97;;
22843;SDS011;11588;51.178;4.852;2024-02-28T13:52:39;8.73;;;6.93;;
22843;SDS011;11588;51.178;4.852;2024-02-28T13:55:06;9.75;;;6.30;;
22843;SDS011;11588;51.178;4.852;2024-02-28T13:57:33;12.50;;;6.53;;
22843;SDS011;11588;51.178;4.852;2024-02-28T14:00:00;8.20;;;5.97;;
22843;SDS011;11588;51.178;4.852;2024-02-28T14:02:26;11.68;;;6.60;;
22843;SDS011;11588;51.178;4.852;2024-02-28T14:04:53;10.68;;;6.72;;
22843;SDS011;11588;51.178;4.852;2024-02-28T14:07:20;13.45;;;6.93;;
22843;SDS011;11588;51.178;4.852;2024-02-28T14:09:47;12.85;;;6.82;;
22843;SDS011;11588;51.178;4.852;2024-02-28T14:12:13;14.60;;;7.13;;
22843;SDS011;11588;51.178;4.852;2024-02-28T14:14:40;9.57;;;6.13;;
22843;SDS011;11588;51.178;4.852;2024-02-28T14:17:06;9.98;;;6.38;;
22843;SDS011;11588;51.178;4.852;2024-02-28T14:19:32;7.32;;;5.97;;
22843;SDS011;11588;51.178;4.852;2024-02-28T14:22:01;8.75;;;6.50;;
22843;SDS011;11588;51.178;4.852;2024-02-28T14:24:27;10.50;;;6.60;;
22843;SDS011;11588;51.178;4.852;2024-02-28T14:26:54;8.45;;;6.18;;
22843;SDS011;11588;51.178;4.852;2024-02-28T14:29:20;11.00;;;6.43;;